Time;durP1;ratioP1;P1;durP2;ratioP2;P2;SDS_P1;SDS_P2;PMS_P1;PMS_P2;Temp;Humidity;BMP_temperature;BMP_pressure;BME280_temperature;BME280_humidity;BME280_pressure;Samples;Min_cycle;Max_cycle;Signal;HPM_P1;HPM_P2
2021/07/01 00:01:13;;;;;;;7.88;4.40;;;21.60;99.90;;;;;;4975752;28;20179;-88
2021/07/01 00:03:40;;;;;;;6.35;4.57;;;21.80;99.90;;;;;;4959497;28;20201;-87
2021/07/01 00:06:06;;;;;;;5.00;4.50;;;21.40;99.90;;;;;;4975758;28;20182;-87
2021/07/01 00:08:32;;;;;;;6.57;4.32;;;22.10;99.90;;;;;;4974770;28;20237;-88
2021/07/01 00:10:58;;;;;;;6.65;5.22;;;;;;;;;;4974001;28;20703;-87
2021/07/01 00:13:23;;;;;;;6.95;5.03;;;21.40;99.90;;;;;;4974641;28;20229;-88
2021/07/01 00:15:49;;;;;;;11.00;5.22;;;21.70;99.90;;;;;;4975564;28;20182;-88
2021/07/01 00:18:15;;;;;;;5.78;5.15;;;21.70;99.90;;;;;;4958104;28;20181;-88
2021/07/01 00:20:41;;;;;;;6.38;5.78;;;;;;;;;;4974781;28;20266;-88
2021/07/01 00:23:07;;;;;;;6.72;5.80;;;21.30;99.90;;;;;;4973924;28;20189;-88
2021/07/01 00:25:33;;;;;;;8.02;5.68;;;21.20;99.90;;;;;;4958410;28;20182;-87
2021/07/01 00:27:59;;;;;;;7.82;5.72;;;;;;;;;;4975085;28;20189;-87
2021/07/01 00:30:26;;;;;;;6.18;5.57;;;;;;;;;;4975442;28;20186;-88
2021/07/01 00:32:52;;;;;;;7.22;5.57;;;21.70;99.90;;;;;;4975335;28;20319;-88
2021/07/01 00:35:18;;;;;;;6.20;5.60;;;20.80;99.90;;;;;;4974939;28;20711;-89
2021/07/01 00:37:44;;;;;;;7.22;5.72;;;21.50;99.90;;;;;;4973834;28;20237;-87
2021/07/01 00:40:11;;;;;;;7.03;5.60;;;21.10;99.90;;;;;;4973838;28;20182;-88
2021/07/01 00:42:38;;;;;;;7.05;5.78;;;;;;;;;;4958240;28;20702;-88
2021/07/01 00:45:06;;;;;;;6.53;5.93;;;21.30;99.90;;;;;;4973828;28;20182;-88
2021/07/01 00:47:33;;;;;;;9.20;5.88;;;;;;;;;;4974959;28;20209;-88
2021/07/01 00:50:03;;;;;;;5.93;5.18;;;21.00;99.90;;;;;;4975225;28;20204;-87
2021/07/01 00:52:29;;;;;;;8.32;6.32;;;;;;;;;;4974942;28;20202;-87
2021/07/01 00:54:57;;;;;;;8.25;6.03;;;20.80;99.90;;;;;;4975272;28;20210;-88
2021/07/01 00:57:23;;;;;;;6.97;5.57;;;;;;;;;;4974843;28;20179;-87
2021/07/01 00:59:49;;;;;;;6.43;5.80;;;;;;;;;;4973747;28;20186;-87
2021/07/01 01:02:15;;;;;;;6.15;5.50;;;21.10;99.90;;;;;;4973594;28;20182;-88
2021/07/01 01:04:40;;;;;;;6.00;4.93;;;20.30;99.90;;;;;;4957658;28;20278;-87
2021/07/01 01:07:06;;;;;;;10.32;5.25;;;;;;;;;;4957362;28;20194;-88
2021/07/01 01:09:32;;;;;;;5.68;5.07;;;20.40;99.90;;;;;;4973725;28;20182;-88
2021/07/01 01:11:59;;;;;;;6.28;5.15;;;;;;;;;;4973329;28;20210;-89
2021/07/01 01:14:25;;;;;;;6.35;5.10;;;20.50;99.90;;;;;;4973441;28;20623;-88
2021/07/01 01:16:51;;;;;;;7.70;5.22;;;21.00;99.90;;;;;;4975015;28;20178;-89
2021/07/01 01:19:17;;;;;;;6.50;5.38;;;;;;;;;;4973522;28;20628;-89
2021/07/01 01:21:49;;;;;;;5.25;4.75;;;21.00;99.90;;;;;;4973373;28;20192;-89
2021/07/01 01:24:15;;;;;;;6.00;4.53;;;20.20;99.90;;;;;;4976567;28;20246;-89
2021/07/01 01:26:41;;;;;;;5.50;4.50;;;20.60;99.90;;;;;;4979213;28;20238;-88
2021/07/01 01:29:08;;;;;;;6.18;4.80;;;;;;;;;;4975567;28;20179;-87
2021/07/01 01:31:37;;;;;;;5.63;4.82;;;;;;;;;;4976810;28;20245;-88
2021/07/01 01:34:04;;;;;;;5.90;4.78;;;20.50;99.90;;;;;;4975795;28;20187;-88
2021/07/01 01:36:30;;;;;;;6.80;4.90;;;20.60;99.90;;;;;;4973435;28;20329;-88
2021/07/01 01:38:56;;;;;;;5.97;4.53;;;;;;;;;;4974774;28;20711;-89
2021/07/01 01:41:23;;;;;;;8.23;4.93;;;20.50;99.90;;;;;;4973251;28;20191;-89
2021/07/01 01:43:49;;;;;;;6.10;4.40;;;20.50;99.90;;;;;;4973513;28;20178;-89
2021/07/01 01:46:15;;;;;;;10.77;4.90;;;20.10;99.90;;;;;;4974514;28;20222;-89
2021/07/01 01:48:40;;;;;;;5.53;4.53;;;20.90;99.90;;;;;;4973683;28;20178;-88
2021/07/01 01:51:06;;;;;;;9.98;4.95;;;;;;;;;;4973508;28;20213;-88
2021/07/01 01:53:32;;;;;;;4.88;4.25;;;;;;;;;;4973171;28;20218;-88
2021/07/01 01:55:58;;;;;;;8.75;4.50;;;20.80;99.90;;;;;;4974518;28;20175;-89
2021/07/01 01:58:23;;;;;;;9.68;5.63;;;20.30;99.90;;;;;;4974497;28;20577;-88
2021/07/01 02:00:49;;;;;;;6.30;4.90;;;20.80;99.90;;;;;;4973641;28;20667;-89
2021/07/01 02:03:15;;;;;;;5.28;3.88;;;20.20;99.90;;;;;;4973531;28;20190;-88
2021/07/01 02:05:41;;;;;;;5.35;4.82;;;;;;;;;;4957198;28;20270;-89
2021/07/01 02:08:09;;;;;;;5.90;5.25;;;20.30;99.90;;;;;;4973409;28;20190;-89
2021/07/01 02:10:35;;;;;;;4.88;4.40;;;20.80;99.90;;;;;;4974634;28;20270;-88
2021/07/01 02:13:01;;;;;;;5.07;4.20;;;;;;;;;;4973880;28;20658;-88
2021/07/01 02:15:27;;;;;;;5.43;4.43;;;20.00;99.90;;;;;;4974583;28;20198;-88
2021/07/01 02:17:55;;;;;;;5.38;4.60;;;20.70;99.90;;;;;;4986700;28;20194;-89
2021/07/01 02:20:23;;;;;;;4.93;4.38;;;19.60;99.90;;;;;;4990924;28;20647;-89
2021/07/01 02:22:50;;;;;;;7.28;5.05;;;20.40;99.90;;;;;;4991071;28;20235;-88
2021/07/01 02:25:16;;;;;;;6.55;4.80;;;20.60;99.90;;;;;;4962173;28;20236;-89
2021/07/01 02:27:43;;;;;;;4.90;4.43;;;20.30;99.90;;;;;;4975968;28;20183;-89
2021/07/01 02:30:12;;;;;;;4.65;4.25;;;20.60;99.90;;;;;;4974611;28;20202;-88
2021/07/01 02:32:38;;;;;;;14.02;5.20;;;20.30;99.90;;;;;;4976907;28;20286;-90
2021/07/01 02:35:07;;;;;;;4.72;4.30;;;20.30;99.90;;;;;;4974486;28;20174;-89
2021/07/01 02:37:33;;;;;;;6.97;5.53;;;20.40;99.90;;;;;;4956769;28;21070;-89
2021/07/01 02:39:59;;;;;;;6.35;4.40;;;;;;;;;;4977709;28;20269;-89
2021/07/01 02:42:25;;;;;;;5.30;4.53;;;;;;;;;;4976836;28;20197;-89
2021/07/01 02:44:51;;;;;;;5.32;4.60;;;20.60;99.90;;;;;;4977372;28;20178;-88
2021/07/01 02:47:17;;;;;;;5.75;5.13;;;;;;;;;;4976606;28;20615;-88
2021/07/01 02:49:42;;;;;;;7.45;5.30;;;19.80;99.90;;;;;;4976590;28;20186;-89
2021/07/01 02:52:08;;;;;;;5.20;4.68;;;;;;;;;;4977658;28;20217;-90
2021/07/01 02:54:34;;;;;;;5.65;4.95;;;20.20;99.90;;;;;;4960246;28;20225;-89
2021/07/01 02:57:01;;;;;;;9.20;6.15;;;20.00;99.90;;;;;;4976688;28;20186;-88
2021/07/01 02:59:27;;;;;;;8.18;5.30;;;20.50;99.90;;;;;;4976070;28;20194;-88
2021/07/01 03:01:53;;;;;;;5.72;5.15;;;;;;;;;;4977074;28;20606;-90
2021/07/01 03:04:19;;;;;;;10.70;8.15;;;20.40;99.90;;;;;;4975965;28;20190;-91
2021/07/01 03:06:45;;;;;;;8.05;5.60;;;20.30;99.90;;;;;;4975825;28;20182;-93
2021/07/01 03:09:11;;;;;;;6.30;5.63;;;;;;;;;;4976929;28;20175;-90
2021/07/01 03:11:38;;;;;;;8.48;5.70;;;20.30;99.90;;;;;;4975401;28;20282;-89
2021/07/01 03:14:05;;;;;;;6.03;5.28;;;20.20;99.90;;;;;;4959623;28;20628;-88
2021/07/01 03:16:31;;;;;;;5.90;5.25;;;19.90;99.90;;;;;;4976363;28;20174;-91
2021/07/01 03:18:57;;;;;;;9.45;5.43;;;20.00;99.90;;;;;;4976845;28;20210;-91
2021/07/01 03:21:24;;;;;;;6.80;5.47;;;20.20;99.90;;;;;;4975291;28;20603;-89
2021/07/01 03:23:50;;;;;;;15.20;11.20;;;;;;;;;;4976402;28;20179;-90
2021/07/01 03:26:17;;;;;;;8.70;5.50;;;20.70;99.90;;;;;;4976737;28;20246;-93
2021/07/01 03:28:44;;;;;;;7.95;4.53;;;20.50;99.90;;;;;;4976418;28;20259;-90
2021/07/01 03:31:10;;;;;;;5.93;4.95;;;20.30;99.90;;;;;;4976268;28;20541;-91
2021/07/01 03:33:37;;;;;;;5.20;4.70;;;20.20;99.90;;;;;;4974468;28;20257;-90
2021/07/01 03:36:07;;;;;;;10.40;5.68;;;20.60;99.90;;;;;;4974892;28;20679;-89
2021/07/01 03:38:34;;;;;;;5.90;5.07;;;20.50;99.90;;;;;;4959284;28;20174;-90
2021/07/01 03:40:59;;;;;;;8.82;5.13;;;20.20;99.90;;;;;;4975162;28;20201;-90
2021/07/01 03:43:26;;;;;;;6.32;5.15;;;;;;;;;;4958599;28;20628;-92
2021/07/01 03:45:51;;;;;;;7.75;5.78;;;20.20;99.90;;;;;;4975901;28;20175;-91
2021/07/01 03:48:18;;;;;;;10.15;6.18;;;;;;;;;;4976255;28;20182;-91
2021/07/01 03:50:44;;;;;;;5.55;5.03;;;20.30;99.90;;;;;;4973777;28;20245;-91
2021/07/01 03:53:10;;;;;;;9.45;5.43;;;;;;;;;;4975503;28;20242;-89
2021/07/01 03:55:36;;;;;;;9.00;5.47;;;20.10;99.90;;;;;;4975597;28;20241;-89
2021/07/01 03:58:02;;;;;;;6.00;5.28;;;20.60;99.90;;;;;;4958824;28;20606;-89
2021/07/01 04:00:28;;;;;;;6.05;5.45;;;;;;;;;;4957869;28;20641;-90
2021/07/01 04:02:54;;;;;;;7.30;5.25;;;20.30;99.90;;;;;;4974564;28;20181;-89
2021/07/01 04:05:20;;;;;;;8.10;5.00;;;;;;;;;;4974540;28;20555;-90
2021/07/01 04:07:46;;;;;;;5.72;5.10;;;20.60;99.90;;;;;;4974112;28;20253;-90
2021/07/01 04:10:15;;;;;;;7.07;4.57;;;20.80;99.90;;;;;;4974437;28;20576;-90
2021/07/01 04:12:41;;;;;;;8.02;5.05;;;;;;;;;;4974239;28;20277;-89
2021/07/01 04:15:07;;;;;;;10.60;5.00;;;20.80;99.90;;;;;;4974068;28;20213;-90
2021/07/01 04:17:33;;;;;;;5.43;4.47;;;20.10;99.90;;;;;;4973841;28;20178;-92
2021/07/01 04:19:59;;;;;;;5.30;4.80;;;20.20;99.90;;;;;;4974546;28;20229;-91
2021/07/01 04:22:25;;;;;;;4.88;4.38;;;20.60;99.90;;;;;;4958109;28;20183;-87
2021/07/01 04:24:52;;;;;;;6.70;4.75;;;;;;;;;;4975681;28;20183;-91
2021/07/01 04:27:18;;;;;;;6.90;4.20;;;21.00;99.90;;;;;;4975211;28;20183;-90
2021/07/01 04:29:44;;;;;;;9.07;4.82;;;20.80;99.90;;;;;;4989074;28;20190;-90
2021/07/01 04:32:10;;;;;;;8.43;4.28;;;;;;;;;;4983814;28;20675;-89
2021/07/01 04:34:36;;;;;;;11.48;5.95;;;;;;;;;;4984566;28;20186;-90
2021/07/01 04:37:03;;;;;;;7.63;5.70;;;20.90;99.90;;;;;;4987113;28;20313;-91
2021/07/01 04:39:29;;;;;;;7.53;5.03;;;21.10;99.90;;;;;;4979630;28;20198;-90
2021/07/01 04:41:55;;;;;;;16.05;4.07;;;21.10;99.90;;;;;;4973625;28;20183;-89
2021/07/01 04:44:21;;;;;;;5.32;4.32;;;;;;;;;;4975583;28;20183;-90
2021/07/01 04:46:47;;;;;;;14.43;4.47;;;20.90;99.90;;;;;;4974880;28;20672;-89
2021/07/01 04:49:13;;;;;;;8.27;3.97;;;;;;;;;;4973726;28;20632;-89
2021/07/01 04:51:39;;;;;;;5.53;4.30;;;;;;;;;;4974668;28;20183;-90
2021/07/01 04:54:05;;;;;;;7.40;4.43;;;;;;;;;;4973845;28;20671;-90
2021/07/01 04:56:46;;;;;;;8.23;4.75;;;20.20;99.90;;;;;;4973077;28;20183;-90
2021/07/01 04:59:13;;;;;;;6.35;4.32;;;20.00;99.90;;;;;;4973879;28;20246;-90
2021/07/01 05:01:39;;;;;;;14.98;4.88;;;;;;;;;;4974758;28;20178;-89
2021/07/01 05:04:09;;;;;;;13.95;5.13;;;20.40;99.90;;;;;;4957538;28;20190;-89
2021/07/01 05:06:40;;;;;;;6.35;4.88;;;20.40;99.90;;;;;;4973149;28;20537;-88
2021/07/01 05:09:06;;;;;;;5.03;4.47;;;20.00;99.90;;;;;;4974288;28;20178;-87
2021/07/01 05:11:33;;;;;;;11.23;5.80;;;20.40;99.90;;;;;;4973180;28;20182;-88
2021/07/01 05:13:59;;;;;;;8.73;5.22;;;20.10;99.90;;;;;;4973086;28;20187;-87
2021/07/01 05:16:28;;;;;;;7.43;5.15;;;;;;;;;;4956926;28;20175;-88
2021/07/01 05:18:57;;;;;;;7.57;5.78;;;20.30;99.90;;;;;;4973887;28;20175;-87
2021/07/01 05:21:23;;;;;;;11.57;6.18;;;;;;;;;;4973888;28;20186;-88
2021/07/01 05:23:49;;;;;;;8.77;6.10;;;20.50;99.90;;;;;;4972658;28;20233;-87
2021/07/01 05:26:15;;;;;;;10.52;5.55;;;19.80;99.90;;;;;;4973360;28;20182;-88
2021/07/01 05:28:42;;;;;;;9.73;6.07;;;;;;;;;;4974190;28;20191;-88
2021/07/01 05:31:07;;;;;;;11.52;5.75;;;20.30;99.90;;;;;;4974428;28;20212;-88
2021/07/01 05:33:33;;;;;;;9.93;5.82;;;;;;;;;;4972794;28;20671;-87
2021/07/01 05:35:59;;;;;;;8.15;6.13;;;19.90;99.90;;;;;;4972556;28;20333;-88
2021/07/01 05:38:25;;;;;;;7.43;5.72;;;;;;;;;;4972614;28;20253;-88
2021/07/01 05:40:51;;;;;;;6.80;5.85;;;20.80;99.90;;;;;;4973312;28;20270;-88
2021/07/01 05:43:16;;;;;;;10.57;6.10;;;20.10;99.90;;;;;;4972307;28;20273;-89
2021/07/01 05:45:43;;;;;;;8.05;5.97;;;;;;;;;;4972281;28;20194;-89
2021/07/01 05:48:10;;;;;;;6.63;5.85;;;;;;;;;;4973739;28;20675;-89
2021/07/01 05:50:42;;;;;;;6.43;5.68;;;20.60;99.90;;;;;;4972438;28;20274;-87
2021/07/01 05:53:10;;;;;;;14.75;6.28;;;20.70;99.90;;;;;;4973855;28;20753;-87
2021/07/01 05:55:35;;;;;;;6.75;5.88;;;20.70;99.90;;;;;;4973485;28;20234;-89
2021/07/01 05:58:03;;;;;;;6.53;5.82;;;20.50;99.90;;;;;;4972923;28;20183;-88
2021/07/01 06:00:30;;;;;;;10.23;5.82;;;;;;;;;;4956573;28;20183;-88
2021/07/01 06:02:56;;;;;;;10.98;6.38;;;;;;;;;;4973342;28;20221;-90
2021/07/01 06:05:22;;;;;;;5.72;5.13;;;21.20;99.90;;;;;;4973128;28;20217;-88
2021/07/01 06:07:52;;;;;;;5.97;5.38;;;20.90;99.90;;;;;;4972734;28;20178;-88
2021/07/01 06:10:19;;;;;;;8.98;5.40;;;20.60;99.90;;;;;;4971722;28;20640;-90
2021/07/01 06:12:45;;;;;;;6.38;5.05;;;21.20;99.90;;;;;;4973093;28;20245;-89
2021/07/01 06:15:11;;;;;;;6.47;5.47;;;20.50;99.90;;;;;;4974379;28;20210;-89
2021/07/01 06:17:38;;;;;;;6.82;4.80;;;20.90;99.90;;;;;;4975190;28;20210;-89
2021/07/01 06:20:07;;;;;;;8.15;5.53;;;20.80;99.90;;;;;;4976694;28;20194;-89
2021/07/01 06:22:33;;;;;;;12.23;5.70;;;20.80;99.90;;;;;;4973809;28;20209;-90
2021/07/01 06:24:59;;;;;;;10.90;5.38;;;21.00;99.90;;;;;;4975029;28;20659;-90
2021/07/01 06:27:35;;;;;;;6.90;4.85;;;21.30;99.90;;;;;;4976862;28;20175;-90
2021/07/01 06:30:04;;;;;;;5.20;4.68;;;20.80;99.90;;;;;;4975995;28;20179;-90
2021/07/01 06:32:38;;;;;;;8.60;4.65;;;20.90;99.90;;;;;;4975995;28;20209;-90
2021/07/01 06:35:04;;;;;;;10.52;5.55;;;;;;;;;;4976502;28;20249;-90
2021/07/01 06:37:33;;;;;;;5.72;4.50;;;21.30;99.90;;;;;;4958622;28;20695;-89
2021/07/01 06:40:01;;;;;;;6.75;4.18;;;21.80;99.90;;;;;;4974359;28;20183;-90
2021/07/01 06:42:27;;;;;;;5.20;4.50;;;21.10;99.90;;;;;;4975352;28;20249;-90
2021/07/01 06:44:57;;;;;;;4.70;4.30;;;21.10;99.90;;;;;;4976382;28;20214;-93
2021/07/01 06:47:23;;;;;;;7.63;4.72;;;;;;;;;;4975065;28;20179;-91
2021/07/01 06:49:51;;;;;;;11.85;4.47;;;21.10;99.90;;;;;;4974974;28;20250;-93
2021/07/01 06:52:18;;;;;;;7.38;4.30;;;21.10;99.90;;;;;;4974731;28;20301;-89
2021/07/01 06:54:44;;;;;;;5.78;4.60;;;21.30;99.90;;;;;;4974644;28;20187;-90
2021/07/01 06:57:10;;;;;;;8.48;4.82;;;21.30;99.90;;;;;;4976939;28;20217;-90
2021/07/01 06:59:37;;;;;;;10.98;5.03;;;;;;;;;;4975548;28;20178;-90
2021/07/01 07:02:03;;;;;;;7.15;4.88;;;21.10;99.90;;;;;;4974963;28;20194;-91
2021/07/01 07:04:31;;;;;;;6.65;5.47;;;21.00;99.90;;;;;;4976230;28;20270;-92
2021/07/01 07:06:58;;;;;;;5.38;4.88;;;21.40;99.90;;;;;;4974804;28;20214;-92
2021/07/01 07:09:24;;;;;;;7.50;4.80;;;21.00;99.90;;;;;;4975040;28;20178;-93
2021/07/01 07:11:50;;;;;;;6.30;5.70;;;21.10;99.90;;;;;;4959034;28;20214;-90
2021/07/01 07:14:17;;;;;;;6.50;5.57;;;20.70;99.90;;;;;;4975253;28;20201;-91
2021/07/01 07:16:43;;;;;;;7.47;5.45;;;;;;;;;;4976392;28;20193;-88
2021/07/01 07:19:09;;;;;;;10.45;5.38;;;21.40;99.90;;;;;;4977224;28;20189;-90
2021/07/01 07:22:13;;;;;;;6.95;5.75;;;20.80;99.90;;;;;;4975718;28;20193;-92
2021/07/01 07:24:40;;;;;;;7.03;5.30;;;20.90;99.90;;;;;;4973564;28;20237;-89
2021/07/01 07:27:08;;;;;;;10.73;5.57;;;21.30;99.90;;;;;;4974473;28;20186;-89
2021/07/01 07:29:36;;;;;;;7.38;5.35;;;21.30;99.90;;;;;;4975382;28;20226;-91
2021/07/01 07:32:04;;;;;;;5.70;4.90;;;20.80;99.90;;;;;;4994887;28;20211;-90
2021/07/01 07:34:33;;;;;;;7.10;5.28;;;20.90;99.90;;;;;;4994721;28;20174;-94
2021/07/01 07:36:59;;;;;;;5.57;5.07;;;;;;;;;;4995306;28;20230;-91
2021/07/01 07:39:28;;;;;;;8.70;5.03;;;20.80;99.90;;;;;;4996141;28;20205;-91
2021/07/01 07:41:54;;;;;;;8.30;5.22;;;;;;;;;;4978894;28;20269;-90
2021/07/01 07:44:20;;;;;;;5.25;4.57;;;20.50;99.90;;;;;;4976701;28;20178;-94
2021/07/01 07:46:48;;;;;;;8.63;5.28;;;;;;;;;;4976602;28;20236;-89
2021/07/01 07:49:14;;;;;;;17.40;5.97;;;;;;;;;;4976351;28;20197;-88
2021/07/01 07:51:42;;;;;;;5.63;5.05;;;20.80;99.90;;;;;;4977065;28;20621;-91
2021/07/01 07:54:09;;;;;;;7.97;4.72;;;20.80;99.90;;;;;;4975150;28;20183;-90
2021/07/01 07:56:37;;;;;;;6.85;5.20;;;20.80;99.90;;;;;;4959358;28;20191;-89
2021/07/01 07:59:04;;;;;;;6.85;4.28;;;20.80;99.90;;;;;;4974607;28;20564;-91
2021/07/01 08:01:32;;;;;;;6.53;4.03;;;20.50;99.90;;;;;;4975262;28;20174;-90
2021/07/01 08:04:05;;;;;;;7.88;4.90;;;20.70;99.90;;;;;;4974447;28;20298;-91
2021/07/01 08:06:32;;;;;;;6.32;4.63;;;20.80;99.90;;;;;;4974741;28;20270;-91
2021/07/01 08:09:01;;;;;;;6.38;4.95;;;21.10;99.90;;;;;;4958107;28;20189;-90
2021/07/01 08:11:27;;;;;;;5.95;4.28;;;20.40;99.90;;;;;;4958671;28;20183;-94
2021/07/01 08:13:59;;;;;;;12.75;4.88;;;;;;;;;;4974279;28;20273;-88
2021/07/01 08:16:26;;;;;;;6.47;4.43;;;;;;;;;;4975607;28;20604;-89
2021/07/01 08:18:52;;;;;;;5.72;4.63;;;20.60;99.90;;;;;;4973779;28;20186;-89
2021/07/01 08:21:19;;;;;;;5.55;4.45;;;20.30;99.90;;;;;;4975187;28;20190;-89
2021/07/01 08:23:46;;;;;;;9.25;4.97;;;20.50;99.90;;;;;;4974704;28;20182;-89
2021/07/01 08:26:12;;;;;;;11.98;4.85;;;20.70;99.90;;;;;;4977343;28;20174;-89
2021/07/01 08:28:38;;;;;;;37.88;22.98;;;;;;;;;;4978449;28;20421;-91
2021/07/01 08:31:15;;;;;;;7.28;5.28;;;20.30;99.90;;;;;;4972970;28;20209;-89
2021/07/01 08:33:46;;;;;;;13.88;8.73;;;20.30;99.90;;;;;;4973773;28;20186;-89
2021/07/01 08:36:20;;;;;;;8.40;6.53;;;21.00;99.90;;;;;;4973267;28;20226;-87
2021/07/01 08:38:49;;;;;;;10.43;5.97;;;20.50;99.90;;;;;;4971179;28;20257;-86
2021/07/01 08:41:18;;;;;;;9.35;6.50;;;20.20;99.90;;;;;;4973595;28;20179;-84
2021/07/01 08:43:52;;;;;;;8.98;5.95;;;20.40;99.90;;;;;;4973614;28;20539;-84
2021/07/01 08:46:29;;;;;;;11.77;7.13;;;20.60;99.90;;;;;;4972761;28;20212;-85
2021/07/01 08:49:08;;;;;;;7.60;6.78;;;20.50;99.90;;;;;;4954634;28;20188;-84
2021/07/01 08:51:40;;;;;;;16.90;8.43;;;20.30;99.90;;;;;;4971500;28;20182;-85
2021/07/01 08:54:20;;;;;;;13.50;8.40;;;20.40;99.90;;;;;;4973748;28;20183;-87
2021/07/01 08:56:47;;;;;;;10.52;8.23;;;19.90;99.90;;;;;;4972507;28;20186;-86
2021/07/01 08:59:16;;;;;;;12.10;8.23;;;19.20;99.90;;;;;;4956238;28;20198;-84
2021/07/01 09:01:46;;;;;;;12.57;8.20;;;19.70;99.90;;;;;;4972533;28;20234;-85
2021/07/01 09:04:14;;;;;;;21.75;9.18;;;19.60;99.90;;;;;;4969294;28;20186;-85
2021/07/01 09:06:40;;;;;;;18.10;12.35;;;19.30;99.90;;;;;;4973667;28;20234;-87
2021/07/01 09:09:09;;;;;;;13.27;10.02;;;20.80;99.90;;;;;;4971827;28;20182;-87
2021/07/01 09:11:37;;;;;;;11.65;9.32;;;19.50;99.90;;;;;;4971805;28;20323;-84
2021/07/01 09:14:06;;;;;;;11.85;9.57;;;19.00;99.90;;;;;;4972737;28;20174;-86
2021/07/01 09:16:35;;;;;;;12.88;10.18;;;18.50;99.90;;;;;;4972022;28;20538;-86
2021/07/01 09:19:01;;;;;;;16.88;10.88;;;18.60;99.90;;;;;;4969753;28;20640;-86
2021/07/01 09:21:27;;;;;;;16.98;10.77;;;19.10;99.90;;;;;;4956025;28;20716;-82
2021/07/01 09:23:53;;;;;;;20.50;11.40;;;18.70;99.90;;;;;;4973116;28;20182;-86
2021/07/01 09:26:22;;;;;;;13.65;10.60;;;19.10;99.90;;;;;;4972114;28;20596;-86
2021/07/01 09:28:49;;;;;;;17.95;11.48;;;18.80;99.90;;;;;;4969601;28;20542;-86
2021/07/01 09:31:20;;;;;;;15.88;11.13;;;19.10;99.90;;;;;;4970166;28;20241;-86
2021/07/01 09:33:50;;;;;;;18.70;12.13;;;19.00;99.90;;;;;;4986383;28;20206;-86
2021/07/01 09:36:18;;;;;;;22.85;12.20;;;19.40;99.90;;;;;;4970702;28;20226;-86
2021/07/01 09:38:46;;;;;;;18.48;12.13;;;19.10;99.90;;;;;;4972427;28;20523;-88
2021/07/01 09:41:13;;;;;;;19.23;12.77;;;19.50;99.90;;;;;;4971082;28;20185;-86
2021/07/01 09:43:40;;;;;;;13.00;10.88;;;18.80;99.90;;;;;;4972683;28;20186;-84
2021/07/01 09:46:12;;;;;;;15.38;11.20;;;19.20;99.90;;;;;;4972371;28;20724;-85
2021/07/01 09:48:45;;;;;;;16.33;12.32;;;19.00;99.90;;;;;;4973211;28;20171;-85
2021/07/01 09:51:11;;;;;;;14.25;12.15;;;19.40;99.90;;;;;;4974516;28;20651;-86
2021/07/01 09:53:38;;;;;;;16.90;11.45;;;19.10;99.90;;;;;;4959332;28;20202;-84
2021/07/01 09:56:12;;;;;;;20.00;11.02;;;19.10;99.90;;;;;;4975930;28;20191;-84
2021/07/01 09:58:43;;;;;;;12.68;10.13;;;18.90;99.90;;;;;;4974371;28;20173;-84
2021/07/01 10:01:31;;;;;;;12.63;10.85;;;18.80;99.90;;;;;;4974935;28;20624;-84
2021/07/01 10:04:00;;;;;;;12.88;11.23;;;18.90;99.90;;;;;;4976311;28;20167;-85
2021/07/01 10:06:26;;;;;;;13.50;11.85;;;;;;;;;;4989810;28;20175;-85
2021/07/01 10:08:52;;;;;;;15.45;11.93;;;19.60;99.90;;;;;;4975938;28;20198;-87
2021/07/01 10:11:38;;;;;;;14.38;10.90;;;19.10;99.90;;;;;;4975514;28;20205;-87
2021/07/01 10:14:09;;;;;;;15.00;11.68;;;19.80;99.90;;;;;;4974971;28;20194;-86
2021/07/01 10:16:36;;;;;;;17.42;12.77;;;19.80;99.90;;;;;;4975082;28;20182;-85
2021/07/01 10:19:05;;;;;;;15.73;13.15;;;19.70;99.90;;;;;;4975159;28;20186;-85
2021/07/01 10:21:32;;;;;;;18.05;12.82;;;19.60;99.90;;;;;;4976330;28;20178;-85
2021/07/01 10:24:15;;;;;;;15.18;11.68;;;20.10;99.90;;;;;;4976022;28;20178;-85
2021/07/01 10:26:52;;;;;;;11.48;10.27;;;19.80;99.90;;;;;;4974248;28;20190;-85
2021/07/01 10:29:19;;;;;;;11.93;10.38;;;19.90;99.90;;;;;;4978444;28;20182;-86
2021/07/01 10:31:57;;;;;;;15.48;10.93;;;20.30;99.90;;;;;;4982332;28;20229;-85
2021/07/01 10:34:25;;;;;;;12.95;10.18;;;19.70;99.90;;;;;;4979901;28;20185;-86
2021/07/01 10:37:14;;;;;;;13.90;10.98;;;20.20;99.90;;;;;;4985575;28;20240;-87
2021/07/01 10:39:40;;;;;;;12.07;9.75;;;;;;;;;;4975823;28;20204;-85
2021/07/01 10:42:07;;;;;;;16.70;10.38;;;19.80;99.90;;;;;;4976342;28;20179;-85
2021/07/01 10:44:32;;;;;;;12.93;9.77;;;19.60;99.90;;;;;;4976421;28;20200;-88
2021/07/01 10:46:58;;;;;;;11.77;8.40;;;;;;;;;;4975851;28;20245;-84
2021/07/01 10:49:34;;;;;;;10.35;9.25;;;19.40;99.90;;;;;;4998664;28;20155;-85
2021/07/01 10:52:03;;;;;;;11.27;9.02;;;19.80;99.90;;;;;;4994276;28;20328;-85
2021/07/01 10:54:29;;;;;;;12.20;8.80;;;;;;;;;;4975534;28;20190;-86
2021/07/01 10:57:03;;;;;;;14.10;9.52;;;19.00;99.90;;;;;;4976873;28;20523;-84
2021/07/01 10:59:49;;;;;;;13.27;10.25;;;19.70;99.90;;;;;;4976537;28;20167;-86
2021/07/01 11:02:29;;;;;;;13.48;10.57;;;19.90;99.90;;;;;;4974798;28;20221;-86
2021/07/01 11:05:00;;;;;;;13.68;9.70;;;19.40;99.90;;;;;;4977289;28;20195;-84
2021/07/01 11:07:28;;;;;;;13.60;9.45;;;19.60;99.90;;;;;;4976595;28;20163;-87
2021/07/01 11:09:58;;;;;;;12.98;8.98;;;19.60;99.90;;;;;;4975895;28;20628;-86
2021/07/01 11:12:27;;;;;;;10.82;9.27;;;20.30;99.90;;;;;;4975459;28;20198;-86
2021/07/01 11:14:56;;;;;;;11.50;9.20;;;19.50;99.90;;;;;;4976704;28;20194;-85
2021/07/01 11:17:35;;;;;;;12.40;7.88;;;19.70;99.90;;;;;;4972474;28;20186;-84
2021/07/01 11:20:19;;;;;;;9.43;8.05;;;19.60;99.90;;;;;;4974587;28;20183;-83
2021/07/01 11:22:56;;;;;;;9.15;7.72;;;20.30;99.90;;;;;;4976616;28;20179;-85
2021/07/01 11:25:22;;;;;;;9.82;7.68;;;20.20;99.90;;;;;;4973834;28;20201;-85
2021/07/01 11:27:48;;;;;;;8.75;6.75;;;20.40;99.90;;;;;;4975108;28;20206;-86
2021/07/01 11:30:25;;;;;;;9.55;8.40;;;20.00;99.90;;;;;;4974422;28;20221;-86
2021/07/01 11:33:14;;;;;;;7.40;6.68;;;20.20;99.90;;;;;;4959156;28;20202;-86
2021/07/01 11:35:41;;;;;;;8.25;6.47;;;20.50;99.90;;;;;;4973061;28;20282;-87
2021/07/01 11:38:26;;;;;;;9.02;6.40;;;20.50;99.90;;;;;;4974200;28;20567;-86
2021/07/01 11:40:55;;;;;;;12.73;6.57;;;19.90;99.90;;;;;;4975390;28;20174;-86
2021/07/01 11:43:21;;;;;;;6.50;5.50;;;19.70;99.90;;;;;;4973420;28;20262;-86
2021/07/01 11:45:50;;;;;;;7.85;6.25;;;20.50;99.90;;;;;;4975051;28;20208;-85
2021/07/01 11:48:17;;;;;;;6.78;5.53;;;20.30;99.90;;;;;;4975280;28;20178;-86
2021/07/01 11:50:43;;;;;;;6.93;6.22;;;20.10;99.90;;;;;;4975413;28;20532;-87
2021/07/01 11:53:09;;;;;;;7.72;6.13;;;;;;;;;;4974949;28;20217;-86
2021/07/01 11:55:35;;;;;;;7.22;6.55;;;19.40;99.90;;;;;;4975241;28;20277;-86
2021/07/01 11:58:04;;;;;;;7.38;5.50;;;20.00;99.90;;;;;;4975232;28;20679;-86
2021/07/01 12:00:30;;;;;;;8.05;6.93;;;19.90;99.90;;;;;;4973129;28;20179;-87
2021/07/01 12:02:57;;;;;;;7.97;6.80;;;20.10;99.90;;;;;;4973952;28;20237;-85
2021/07/01 12:05:24;;;;;;;13.18;7.28;;;19.90;99.90;;;;;;4973382;28;20236;-88
2021/07/01 12:07:50;;;;;;;11.93;6.63;;;20.20;99.90;;;;;;4975154;28;20205;-86
2021/07/01 12:10:20;;;;;;;8.35;7.00;;;20.20;99.90;;;;;;4972712;28;20546;-85
2021/07/01 12:12:46;;;;;;;9.30;7.68;;;20.60;99.90;;;;;;4975263;28;20218;-88
2021/07/01 12:15:16;;;;;;;11.82;8.65;;;20.30;99.90;;;;;;4973852;28;20521;-86
2021/07/01 12:17:57;;;;;;;11.73;9.00;;;19.90;99.90;;;;;;4973448;28;20650;-86
2021/07/01 12:20:54;;;;;;;10.30;8.82;;;20.30;99.90;;;;;;4973294;28;20687;-84
2021/07/01 12:23:23;;;;;;;12.43;9.27;;;20.60;99.90;;;;;;4972910;28;20710;-85
2021/07/01 12:25:56;;;;;;;11.52;9.27;;;20.30;99.90;;;;;;4970461;28;20190;-84
2021/07/01 12:28:27;;;;;;;14.10;10.50;;;20.20;99.90;;;;;;4973189;28;20267;-85
2021/07/01 12:31:04;;;;;;;15.30;13.20;;;20.20;99.90;;;;;;4971190;28;20178;-86
2021/07/01 12:34:04;;;;;;;18.20;15.18;;;20.40;99.90;;;;;;4973867;28;20194;-83
2021/07/01 12:36:42;;;;;;;19.50;16.10;;;19.60;99.90;;;;;;4945641;28;20271;-84
2021/07/01 12:39:10;;;;;;;19.75;15.93;;;;;;;;;;4972463;28;20171;-85
2021/07/01 12:41:38;;;;;;;20.88;14.98;;;19.50;99.90;;;;;;4971605;28;20190;-83
2021/07/01 12:44:05;;;;;;;19.00;15.15;;;20.10;99.90;;;;;;4972819;28;20190;-86
2021/07/01 12:46:43;;;;;;;19.88;15.65;;;19.40;99.90;;;;;;4974127;28;20197;-85
2021/07/01 12:49:18;;;;;;;18.52;15.15;;;20.00;99.90;;;;;;4974149;28;20177;-83
2021/07/01 12:51:45;;;;;;;26.70;15.68;;;19.20;99.90;;;;;;4974918;28;20182;-86
2021/07/01 12:54:34;;;;;;;19.00;15.05;;;19.60;99.90;;;;;;4974144;28;20186;-86
2021/07/01 12:57:00;;;;;;;15.57;11.82;;;19.70;99.90;;;;;;4971441;28;20233;-86
2021/07/01 12:59:47;;;;;;;11.80;9.88;;;19.80;99.90;;;;;;4971500;28;20182;-86
2021/07/01 13:02:14;;;;;;;10.55;7.07;;;19.70;99.90;;;;;;4972216;28;20253;-85
2021/07/01 13:04:48;;;;;;;7.93;7.03;;;19.60;99.90;;;;;;4972896;28;20182;-84
2021/07/01 13:07:18;;;;;;;8.63;5.32;;;19.80;99.90;;;;;;4972728;28;20216;-84
2021/07/01 13:09:46;;;;;;;5.55;4.97;;;19.70;99.90;;;;;;4972415;28;20190;-84